sensor_id;sensor_type;location;lat;lon;timestamp;temperature;humidity
42261;DHT22;27926;48.062;7.474;2023-03-01T00:01:14;-1.30;99.90
42261;DHT22;27926;48.062;7.474;2023-03-01T00:03:39;-1.30;99.90
42261;DHT22;27926;48.062;7.474;2023-03-01T00:06:05;-1.30;99.90
42261;DHT22;27926;48.062;7.474;2023-03-01T00:08:30;0.50;99.90
42261;DHT22;27926;48.062;7.474;2023-03-01T00:11:15;-1.40;99.90
42261;DHT22;27926;48.062;7.474;2023-03-01T00:13:42;-1.40;99.90
42261;DHT22;27926;48.062;7.474;2023-03-01T00:16:18;-1.40;99.90
42261;DHT22;27926;48.062;7.474;2023-03-01T00:18:44;-1.40;99.90
42261;DHT22;27926;48.062;7.474;2023-03-01T00:21:09;-1.40;99.90
42261;DHT22;27926;48.062;7.474;2023-03-01T00:23:35;-1.40;99.90
42261;DHT22;27926;48.062;7.474;2023-03-01T00:26:00;-1.40;99.90
42261;DHT22;27926;48.062;7.474;2023-03-01T00:28:25;-1.30;99.90
42261;DHT22;27926;48.062;7.474;2023-03-01T00:30:49;-1.30;99.90
42261;DHT22;27926;48.062;7.474;2023-03-01T00:33:14;-1.30;99.90
42261;DHT22;27926;48.062;7.474;2023-03-01T00:35:39;-1.20;99.90
42261;DHT22;27926;48.062;7.474;2023-03-01T00:38:04;-1.30;99.90
42261;DHT22;27926;48.062;7.474;2023-03-01T00:40:29;-1.30;99.90
42261;DHT22;27926;48.062;7.474;2023-03-01T00:42:55;-1.30;99.90
42261;DHT22;27926;48.062;7.474;2023-03-01T00:45:20;-1.40;99.90
42261;DHT22;27926;48.062;7.474;2023-03-01T00:47:45;-1.40;99.90
42261;DHT22;27926;48.062;7.474;2023-03-01T00:50:11;-1.40;99.90
42261;DHT22;27926;48.062;7.474;2023-03-01T00:52:35;-1.50;99.90
42261;DHT22;27926;48.062;7.474;2023-03-01T00:55:00;-1.50;99.90
42261;DHT22;27926;48.062;7.474;2023-03-01T00:57:25;-1.50;99.90
42261;DHT22;27926;48.062;7.474;2023-03-01T00:59:51;-1.60;99.90
42261;DHT22;27926;48.062;7.474;2023-03-01T01:02:22;-1.60;99.90
42261;DHT22;27926;48.062;7.474;2023-03-01T01:04:47;-1.60;99.90
42261;DHT22;27926;48.062;7.474;2023-03-01T01:07:12;-1.60;99.90
42261;DHT22;27926;48.062;7.474;2023-03-01T01:09:37;-1.60;99.90
42261;DHT22;27926;48.062;7.474;2023-03-01T01:12:05;-1.60;99.90
42261;DHT22;27926;48.062;7.474;2023-03-01T01:14:30;-1.60;99.90
42261;DHT22;27926;48.062;7.474;2023-03-01T01:16:55;-1.60;99.90
42261;DHT22;27926;48.062;7.474;2023-03-01T01:19:19;-1.60;99.90
42261;DHT22;27926;48.062;7.474;2023-03-01T01:21:44;-1.60;99.90
42261;DHT22;27926;48.062;7.474;2023-03-01T01:24:09;-1.60;99.90
42261;DHT22;27926;48.062;7.474;2023-03-01T01:26:34;-1.20;99.90
42261;DHT22;27926;48.062;7.474;2023-03-01T01:29:02;-1.60;99.90
42261;DHT22;27926;48.062;7.474;2023-03-01T01:31:28;-1.70;99.90
42261;DHT22;27926;48.062;7.474;2023-03-01T01:33:54;-1.60;99.90
42261;DHT22;27926;48.062;7.474;2023-03-01T01:36:19;-1.70;99.90
42261;DHT22;27926;48.062;7.474;2023-03-01T01:38:44;-1.70;99.90
42261;DHT22;27926;48.062;7.474;2023-03-01T01:41:10;-1.70;99.90
42261;DHT22;27926;48.062;7.474;2023-03-01T01:43:40;-1.70;99.90
42261;DHT22;27926;48.062;7.474;2023-03-01T01:48:52;-1.60;99.90
42261;DHT22;27926;48.062;7.474;2023-03-01T01:51:25;-1.60;99.90
42261;DHT22;27926;48.062;7.474;2023-03-01T01:53:57;-1.60;99.90
42261;DHT22;27926;48.062;7.474;2023-03-01T01:56:24;-1.70;99.90
42261;DHT22;27926;48.062;7.474;2023-03-01T01:58:50;-1.60;99.90
42261;DHT22;27926;48.062;7.474;2023-03-01T02:01:16;-1.60;99.90
42261;DHT22;27926;48.062;7.474;2023-03-01T02:03:42;-1.60;99.90
42261;DHT22;27926;48.062;7.474;2023-03-01T02:06:13;-1.60;99.90
42261;DHT22;27926;48.062;7.474;2023-03-01T02:08:42;-1.60;99.90
42261;DHT22;27926;48.062;7.474;2023-03-01T02:11:08;-1.70;99.90
42261;DHT22;27926;48.062;7.474;2023-03-01T02:13:34;-1.60;99.90
42261;DHT22;27926;48.062;7.474;2023-03-01T02:16:01;-1.60;99.90
42261;DHT22;27926;48.062;7.474;2023-03-01T02:18:26;-1.60;99.90
42261;DHT22;27926;48.062;7.474;2023-03-01T02:23:41;-1.60;99.90
42261;DHT22;27926;48.062;7.474;2023-03-01T02:26:06;-1.60;99.90
42261;DHT22;27926;48.062;7.474;2023-03-01T02:28:34;-1.70;99.90
42261;DHT22;27926;48.062;7.474;2023-03-01T02:31:00;-1.70;99.90
42261;DHT22;27926;48.062;7.474;2023-03-01T02:33:45;-1.60;99.90
42261;DHT22;27926;48.062;7.474;2023-03-01T02:36:15;-1.60;99.90
42261;DHT22;27926;48.062;7.474;2023-03-01T02:38:42;-1.60;99.90
42261;DHT22;27926;48.062;7.474;2023-03-01T02:41:07;-1.60;99.90
42261;DHT22;27926;48.062;7.474;2023-03-01T02:43:33;-1.60;99.90
42261;DHT22;27926;48.062;7.474;2023-03-01T02:46:05;-1.60;99.90
42261;DHT22;27926;48.062;7.474;2023-03-01T02:48:58;-1.60;99.90
42261;DHT22;27926;48.062;7.474;2023-03-01T02:53:55;-1.70;99.90
42261;DHT22;27926;48.062;7.474;2023-03-01T02:56:22;-1.70;99.90
42261;DHT22;27926;48.062;7.474;2023-03-01T02:58:47;-1.70;99.90
42261;DHT22;27926;48.062;7.474;2023-03-01T03:01:15;-1.80;99.90
42261;DHT22;27926;48.062;7.474;2023-03-01T03:03:40;-1.70;99.90
42261;DHT22;27926;48.062;7.474;2023-03-01T03:06:05;-1.80;99.90
42261;DHT22;27926;48.062;7.474;2023-03-01T03:08:29;-0.60;99.90
42261;DHT22;27926;48.062;7.474;2023-03-01T03:10:57;-1.80;99.90
42261;DHT22;27926;48.062;7.474;2023-03-01T03:13:23;-1.50;99.90
42261;DHT22;27926;48.062;7.474;2023-03-01T03:15:52;-1.80;99.90
42261;DHT22;27926;48.062;7.474;2023-03-01T03:18:21;-1.80;99.90
42261;DHT22;27926;48.062;7.474;2023-03-01T03:20:46;-1.90;99.90
42261;DHT22;27926;48.062;7.474;2023-03-01T03:23:11;-1.80;99.90
42261;DHT22;27926;48.062;7.474;2023-03-01T03:25:35;-1.90;99.90
42261;DHT22;27926;48.062;7.474;2023-03-01T03:28:02;-1.90;99.90
42261;DHT22;27926;48.062;7.474;2023-03-01T03:30:33;-1.90;99.90
42261;DHT22;27926;48.062;7.474;2023-03-01T03:32:59;-1.90;99.90
42261;DHT22;27926;48.062;7.474;2023-03-01T03:35:26;-1.90;99.90
42261;DHT22;27926;48.062;7.474;2023-03-01T03:37:53;-1.90;99.90
42261;DHT22;27926;48.062;7.474;2023-03-01T03:40:27;-2.00;99.90
42261;DHT22;27926;48.062;7.474;2023-03-01T03:42:52;-2.00;99.90
42261;DHT22;27926;48.062;7.474;2023-03-01T03:45:17;-2.00;99.90
42261;DHT22;27926;48.062;7.474;2023-03-01T03:47:42;-2.00;99.90
42261;DHT22;27926;48.062;7.474;2023-03-01T03:50:08;-2.00;99.90
42261;DHT22;27926;48.062;7.474;2023-03-01T03:52:33;-2.00;99.90
42261;DHT22;27926;48.062;7.474;2023-03-01T03:54:58;-2.00;99.90
42261;DHT22;27926;48.062;7.474;2023-03-01T03:57:22;-2.00;99.90
42261;DHT22;27926;48.062;7.474;2023-03-01T03:59:47;-2.00;99.90
42261;DHT22;27926;48.062;7.474;2023-03-01T04:02:11;-2.00;99.90
42261;DHT22;27926;48.062;7.474;2023-03-01T04:04:36;-2.00;99.90
42261;DHT22;27926;48.062;7.474;2023-03-01T04:07:00;-2.00;99.90
42261;DHT22;27926;48.062;7.474;2023-03-01T04:09:25;-2.00;99.90
42261;DHT22;27926;48.062;7.474;2023-03-01T04:11:50;-1.90;99.90
42261;DHT22;27926;48.062;7.474;2023-03-01T04:14:14;-1.90;99.90
42261;DHT22;27926;48.062;7.474;2023-03-01T04:16:39;-1.90;99.90
42261;DHT22;27926;48.062;7.474;2023-03-01T04:19:03;-1.90;99.90
42261;DHT22;27926;48.062;7.474;2023-03-01T04:21:31;-2.00;99.90
42261;DHT22;27926;48.062;7.474;2023-03-01T04:23:56;-2.00;99.90
42261;DHT22;27926;48.062;7.474;2023-03-01T04:26:21;-2.00;99.90
42261;DHT22;27926;48.062;7.474;2023-03-01T04:28:45;-2.10;99.90
42261;DHT22;27926;48.062;7.474;2023-03-01T04:31:14;-2.00;99.90
42261;DHT22;27926;48.062;7.474;2023-03-01T04:33:50;-2.10;99.90
42261;DHT22;27926;48.062;7.474;2023-03-01T04:36:16;-2.10;99.90
42261;DHT22;27926;48.062;7.474;2023-03-01T04:38:41;-2.10;99.90
42261;DHT22;27926;48.062;7.474;2023-03-01T04:41:09;-2.20;99.90
42261;DHT22;27926;48.062;7.474;2023-03-01T04:43:34;-2.20;99.90
42261;DHT22;27926;48.062;7.474;2023-03-01T04:46:03;-2.20;99.90
42261;DHT22;27926;48.062;7.474;2023-03-01T04:48:30;-1.90;99.90
42261;DHT22;27926;48.062;7.474;2023-03-01T04:50:55;-2.20;99.90
42261;DHT22;27926;48.062;7.474;2023-03-01T04:53:19;-2.20;99.90
42261;DHT22;27926;48.062;7.474;2023-03-01T04:55:44;-2.20;99.90
42261;DHT22;27926;48.062;7.474;2023-03-01T04:58:08;-2.30;99.90
42261;DHT22;27926;48.062;7.474;2023-03-01T05:00:33;-2.30;99.90
42261;DHT22;27926;48.062;7.474;2023-03-01T05:03:00;-2.30;99.90
42261;DHT22;27926;48.062;7.474;2023-03-01T05:05:31;-2.30;99.90
42261;DHT22;27926;48.062;7.474;2023-03-01T05:08:00;-2.40;99.90
42261;DHT22;27926;48.062;7.474;2023-03-01T05:10:27;-2.40;99.90
42261;DHT22;27926;48.062;7.474;2023-03-01T05:12:53;-2.40;99.90
42261;DHT22;27926;48.062;7.474;2023-03-01T05:15:18;-2.50;99.90
42261;DHT22;27926;48.062;7.474;2023-03-01T05:17:43;-2.50;99.90
42261;DHT22;27926;48.062;7.474;2023-03-01T05:20:09;-2.40;99.90
42261;DHT22;27926;48.062;7.474;2023-03-01T05:22:35;-2.50;99.90
42261;DHT22;27926;48.062;7.474;2023-03-01T05:24:59;-2.40;99.90
42261;DHT22;27926;48.062;7.474;2023-03-01T05:27:24;-2.40;99.90
42261;DHT22;27926;48.062;7.474;2023-03-01T05:29:49;-2.30;99.90
42261;DHT22;27926;48.062;7.474;2023-03-01T05:32:13;-2.30;99.90
42261;DHT22;27926;48.062;7.474;2023-03-01T05:34:39;-2.20;99.90
42261;DHT22;27926;48.062;7.474;2023-03-01T05:37:04;-2.10;99.90
42261;DHT22;27926;48.062;7.474;2023-03-01T05:39:29;-2.10;99.90
42261;DHT22;27926;48.062;7.474;2023-03-01T05:41:55;-2.00;99.90
42261;DHT22;27926;48.062;7.474;2023-03-01T05:44:20;-2.00;99.90
42261;DHT22;27926;48.062;7.474;2023-03-01T05:46:45;-1.90;99.90
42261;DHT22;27926;48.062;7.474;2023-03-01T05:49:11;-1.80;99.90
42261;DHT22;27926;48.062;7.474;2023-03-01T05:51:37;-1.80;99.90
42261;DHT22;27926;48.062;7.474;2023-03-01T05:54:02;-1.70;99.90
42261;DHT22;27926;48.062;7.474;2023-03-01T05:56:27;-1.70;99.90
42261;DHT22;27926;48.062;7.474;2023-03-01T05:58:51;-1.60;99.90
42261;DHT22;27926;48.062;7.474;2023-03-01T06:01:19;-1.60;99.90
42261;DHT22;27926;48.062;7.474;2023-03-01T06:03:43;-1.50;99.90
42261;DHT22;27926;48.062;7.474;2023-03-01T06:06:08;-1.50;99.90
42261;DHT22;27926;48.062;7.474;2023-03-01T06:08:32;-1.40;99.90
42261;DHT22;27926;48.062;7.474;2023-03-01T06:10:57;-1.30;99.90
42261;DHT22;27926;48.062;7.474;2023-03-01T06:13:22;-1.30;99.90
42261;DHT22;27926;48.062;7.474;2023-03-01T06:15:47;-1.30;99.90
42261;DHT22;27926;48.062;7.474;2023-03-01T06:18:12;-1.20;99.90
42261;DHT22;27926;48.062;7.474;2023-03-01T06:20:36;-1.20;99.90
42261;DHT22;27926;48.062;7.474;2023-03-01T06:23:01;-1.10;99.90
42261;DHT22;27926;48.062;7.474;2023-03-01T06:25:27;-1.10;99.90
42261;DHT22;27926;48.062;7.474;2023-03-01T06:27:52;-1.10;99.90
42261;DHT22;27926;48.062;7.474;2023-03-01T06:30:19;-1.10;99.90
42261;DHT22;27926;48.062;7.474;2023-03-01T06:32:43;-1.10;99.90
42261;DHT22;27926;48.062;7.474;2023-03-01T06:35:12;-1.10;99.90
42261;DHT22;27926;48.062;7.474;2023-03-01T06:37:38;-1.00;99.90
42261;DHT22;27926;48.062;7.474;2023-03-01T06:40:04;-1.00;99.90
42261;DHT22;27926;48.062;7.474;2023-03-01T06:42:32;-1.00;99.90
42261;DHT22;27926;48.062;7.474;2023-03-01T06:44:56;-1.00;99.90
42261;DHT22;27926;48.062;7.474;2023-03-01T06:47:21;-1.00;99.90
42261;DHT22;27926;48.062;7.474;2023-03-01T06:49:46;-1.80;99.90
42261;DHT22;27926;48.062;7.474;2023-03-01T06:52:10;-0.90;99.90
42261;DHT22;27926;48.062;7.474;2023-03-01T06:54:35;-0.90;99.90
42261;DHT22;27926;48.062;7.474;2023-03-01T06:56:59;-0.90;99.90
42261;DHT22;27926;48.062;7.474;2023-03-01T06:59:24;-0.90;99.90
42261;DHT22;27926;48.062;7.474;2023-03-01T07:01:49;-0.80;99.90
42261;DHT22;27926;48.062;7.474;2023-03-01T07:04:13;-0.80;99.90
42261;DHT22;27926;48.062;7.474;2023-03-01T07:06:38;-0.80;99.90
42261;DHT22;27926;48.062;7.474;2023-03-01T07:09:03;-0.80;99.90
42261;DHT22;27926;48.062;7.474;2023-03-01T07:11:27;-0.80;99.90
42261;DHT22;27926;48.062;7.474;2023-03-01T07:13:52;-0.70;99.90
42261;DHT22;27926;48.062;7.474;2023-03-01T07:16:17;-0.70;99.90
42261;DHT22;27926;48.062;7.474;2023-03-01T07:18:42;-0.70;99.90
42261;DHT22;27926;48.062;7.474;2023-03-01T07:21:07;-0.70;99.90
42261;DHT22;27926;48.062;7.474;2023-03-01T07:23:32;-0.70;99.90
42261;DHT22;27926;48.062;7.474;2023-03-01T07:25:57;-0.60;99.90
42261;DHT22;27926;48.062;7.474;2023-03-01T07:28:24;-0.60;99.90
42261;DHT22;27926;48.062;7.474;2023-03-01T07:30:49;-0.60;99.90
42261;DHT22;27926;48.062;7.474;2023-03-01T07:33:14;-0.60;99.90
42261;DHT22;27926;48.062;7.474;2023-03-01T07:35:38;-0.60;99.90
42261;DHT22;27926;48.062;7.474;2023-03-01T07:38:03;-0.50;99.90
42261;DHT22;27926;48.062;7.474;2023-03-01T07:40:28;-0.50;99.90
42261;DHT22;27926;48.062;7.474;2023-03-01T07:42:56;-0.50;99.90
42261;DHT22;27926;48.062;7.474;2023-03-01T07:45:22;-0.50;99.90
42261;DHT22;27926;48.062;7.474;2023-03-01T07:47:46;-0.40;99.90
42261;DHT22;27926;48.062;7.474;2023-03-01T07:50:11;-0.40;99.90
42261;DHT22;27926;48.062;7.474;2023-03-01T07:52:36;-0.40;99.90
42261;DHT22;27926;48.062;7.474;2023-03-01T07:55:00;-0.40;99.90
42261;DHT22;27926;48.062;7.474;2023-03-01T07:57:25;-0.30;99.90
42261;DHT22;27926;48.062;7.474;2023-03-01T07:59:49;-0.30;99.90
42261;DHT22;27926;48.062;7.474;2023-03-01T08:02:14;-0.30;99.90
42261;DHT22;27926;48.062;7.474;2023-03-01T08:04:39;-0.30;99.90
42261;DHT22;27926;48.062;7.474;2023-03-01T08:07:05;-0.30;99.90
42261;DHT22;27926;48.062;7.474;2023-03-01T08:09:30;-0.30;99.90
42261;DHT22;27926;48.062;7.474;2023-03-01T08:11:56;-0.20;99.90
42261;DHT22;27926;48.062;7.474;2023-03-01T08:14:23;-0.20;99.90
42261;DHT22;27926;48.062;7.474;2023-03-01T08:16:51;-0.20;99.90
42261;DHT22;27926;48.062;7.474;2023-03-01T08:19:16;-0.20;99.90
42261;DHT22;27926;48.062;7.474;2023-03-01T08:21:41;-0.10;99.90
42261;DHT22;27926;48.062;7.474;2023-03-01T08:24:06;-0.10;99.90
42261;DHT22;27926;48.062;7.474;2023-03-01T08:26:31;0.00;99.90
42261;DHT22;27926;48.062;7.474;2023-03-01T08:28:56;0.00;99.90
42261;DHT22;27926;48.062;7.474;2023-03-01T08:31:27;0.00;99.90
42261;DHT22;27926;48.062;7.474;2023-03-01T08:33:55;0.00;99.90
42261;DHT22;27926;48.062;7.474;2023-03-01T08:36:20;0.10;99.90
42261;DHT22;27926;48.062;7.474;2023-03-01T08:38:45;0.20;99.90
42261;DHT22;27926;48.062;7.474;2023-03-01T08:41:10;0.20;99.90
42261;DHT22;27926;48.062;7.474;2023-03-01T08:43:34;0.30;99.90
42261;DHT22;27926;48.062;7.474;2023-03-01T08:45:59;0.40;99.90
42261;DHT22;27926;48.062;7.474;2023-03-01T08:48:27;0.50;99.90
42261;DHT22;27926;48.062;7.474;2023-03-01T08:50:52;0.60;99.90
42261;DHT22;27926;48.062;7.474;2023-03-01T08:53:17;0.60;99.90
42261;DHT22;27926;48.062;7.474;2023-03-01T08:55:41;0.60;99.90
42261;DHT22;27926;48.062;7.474;2023-03-01T08:58:06;0.60;99.90
42261;DHT22;27926;48.062;7.474;2023-03-01T09:00:30;0.70;99.90
42261;DHT22;27926;48.062;7.474;2023-03-01T09:02:55;0.70;99.90
42261;DHT22;27926;48.062;7.474;2023-03-01T09:05:19;0.80;99.90
42261;DHT22;27926;48.062;7.474;2023-03-01T09:07:44;0.80;99.90
42261;DHT22;27926;48.062;7.474;2023-03-01T09:10:09;0.90;99.90
42261;DHT22;27926;48.062;7.474;2023-03-01T09:12:34;0.90;99.90
42261;DHT22;27926;48.062;7.474;2023-03-01T09:14:59;1.00;99.90
42261;DHT22;27926;48.062;7.474;2023-03-01T09:17:23;1.10;99.90
42261;DHT22;27926;48.062;7.474;2023-03-01T09:19:48;1.20;99.90
42261;DHT22;27926;48.062;7.474;2023-03-01T09:22:13;1.20;99.90
42261;DHT22;27926;48.062;7.474;2023-03-01T09:24:38;1.30;99.90
42261;DHT22;27926;48.062;7.474;2023-03-01T09:27:03;1.30;99.90
42261;DHT22;27926;48.062;7.474;2023-03-01T09:29:32;1.40;99.90
42261;DHT22;27926;48.062;7.474;2023-03-01T09:31:57;1.40;99.90
42261;DHT22;27926;48.062;7.474;2023-03-01T09:34:22;1.40;99.90
42261;DHT22;27926;48.062;7.474;2023-03-01T09:36:47;1.50;99.90
42261;DHT22;27926;48.062;7.474;2023-03-01T09:39:12;1.50;99.90
42261;DHT22;27926;48.062;7.474;2023-03-01T09:41:44;1.70;99.90
42261;DHT22;27926;48.062;7.474;2023-03-01T09:46:54;1.80;99.90
42261;DHT22;27926;48.062;7.474;2023-03-01T09:49:21;1.90;99.90
42261;DHT22;27926;48.062;7.474;2023-03-01T09:52:19;2.00;99.90
42261;DHT22;27926;48.062;7.474;2023-03-01T09:54:46;2.00;99.90
42261;DHT22;27926;48.062;7.474;2023-03-01T09:57:20;2.00;99.90
42261;DHT22;27926;48.062;7.474;2023-03-01T10:10:42;2.40;99.90
42261;DHT22;27926;48.062;7.474;2023-03-01T10:13:25;2.50;99.90
42261;DHT22;27926;48.062;7.474;2023-03-01T10:15:55;2.60;99.90
42261;DHT22;27926;48.062;7.474;2023-03-01T10:18:23;2.80;99.90
42261;DHT22;27926;48.062;7.474;2023-03-01T10:23:16;2.80;99.90
42261;DHT22;27926;48.062;7.474;2023-03-01T10:29:04;2.90;99.90
42261;DHT22;27926;48.062;7.474;2023-03-01T10:31:51;3.00;99.90
42261;DHT22;27926;48.062;7.474;2023-03-01T10:34:17;3.10;99.90
42261;DHT22;27926;48.062;7.474;2023-03-01T10:36:42;3.20;99.90
42261;DHT22;27926;48.062;7.474;2023-03-01T10:39:13;3.30;99.90
42261;DHT22;27926;48.062;7.474;2023-03-01T10:41:57;3.50;99.90
42261;DHT22;27926;48.062;7.474;2023-03-01T10:44:41;3.60;99.90
42261;DHT22;27926;48.062;7.474;2023-03-01T10:47:16;3.60;99.90
42261;DHT22;27926;48.062;7.474;2023-03-01T10:52:19;3.50;99.90
42261;DHT22;27926;48.062;7.474;2023-03-01T10:54:55;3.50;99.90
42261;DHT22;27926;48.062;7.474;2023-03-01T10:57:49;3.50;99.90
42261;DHT22;27926;48.062;7.474;2023-03-01T11:02:43;3.80;99.90
42261;DHT22;27926;48.062;7.474;2023-03-01T11:10:24;4.20;99.90
42261;DHT22;27926;48.062;7.474;2023-03-01T11:12:53;4.30;99.90
42261;DHT22;27926;48.062;7.474;2023-03-01T11:15:29;4.30;99.90
42261;DHT22;27926;48.062;7.474;2023-03-01T11:17:56;4.40;99.90
42261;DHT22;27926;48.062;7.474;2023-03-01T11:20:32;4.40;99.90
42261;DHT22;27926;48.062;7.474;2023-03-01T11:23:17;4.50;99.90
42261;DHT22;27926;48.062;7.474;2023-03-01T11:25:47;4.50;99.90
42261;DHT22;27926;48.062;7.474;2023-03-01T11:28:16;4.60;99.90
42261;DHT22;27926;48.062;7.474;2023-03-01T11:36:11;5.00;99.90
42261;DHT22;27926;48.062;7.474;2023-03-01T11:38:38;5.00;99.90
42261;DHT22;27926;48.062;7.474;2023-03-01T11:41:10;5.20;99.90
42261;DHT22;27926;48.062;7.474;2023-03-01T11:57:39;5.50;99.90
42261;DHT22;27926;48.062;7.474;2023-03-01T12:00:31;5.60;99.80
42261;DHT22;27926;48.062;7.474;2023-03-01T12:03:30;5.70;99.70
42261;DHT22;27926;48.062;7.474;2023-03-01T12:06:16;5.80;99.90
42261;DHT22;27926;48.062;7.474;2023-03-01T12:22:29;6.00;98.80
42261;DHT22;27926;48.062;7.474;2023-03-01T12:44:01;6.10;98.80
42261;DHT22;27926;48.062;7.474;2023-03-01T12:46:38;6.20;99.30
42261;DHT22;27926;48.062;7.474;2023-03-01T12:49:16;6.20;98.20
42261;DHT22;27926;48.062;7.474;2023-03-01T12:51:51;6.30;98.70
42261;DHT22;27926;48.062;7.474;2023-03-01T12:54:35;6.60;98.50
42261;DHT22;27926;48.062;7.474;2023-03-01T12:57:12;6.30;98.30
42261;DHT22;27926;48.062;7.474;2023-03-01T12:59:47;6.30;98.30
42261;DHT22;27926;48.062;7.474;2023-03-01T13:02:55;6.30;98.20
42261;DHT22;27926;48.062;7.474;2023-03-01T13:05:26;6.20;98.10
42261;DHT22;27926;48.062;7.474;2023-03-01T13:08:05;6.20;98.60
42261;DHT22;27926;48.062;7.474;2023-03-01T13:10:34;6.20;98.90
42261;DHT22;27926;48.062;7.474;2023-03-01T13:13:13;6.40;99.10
42261;DHT22;27926;48.062;7.474;2023-03-01T13:15:40;6.90;98.90
42261;DHT22;27926;48.062;7.474;2023-03-01T13:34:02;6.30;98.50
42261;DHT22;27926;48.062;7.474;2023-03-01T13:39:02;6.40;98.20
42261;DHT22;27926;48.062;7.474;2023-03-01T13:44:20;6.40;98.20
42261;DHT22;27926;48.062;7.474;2023-03-01T13:46:45;6.90;98.70
42261;DHT22;27926;48.062;7.474;2023-03-01T13:49:15;6.50;98.10
42261;DHT22;27926;48.062;7.474;2023-03-01T13:51:40;6.50;97.70
42261;DHT22;27926;48.062;7.474;2023-03-01T13:54:09;6.40;97.70
42261;DHT22;27926;48.062;7.474;2023-03-01T13:56:37;6.40;98.20
42261;DHT22;27926;48.062;7.474;2023-03-01T13:59:06;6.50;97.90
42261;DHT22;27926;48.062;7.474;2023-03-01T14:01:35;6.70;97.80
42261;DHT22;27926;48.062;7.474;2023-03-01T14:04:02;6.60;97.90
42261;DHT22;27926;48.062;7.474;2023-03-01T14:06:30;6.60;98.20
42261;DHT22;27926;48.062;7.474;2023-03-01T14:14:44;6.40;98.30
42261;DHT22;27926;48.062;7.474;2023-03-01T14:19:37;6.50;97.70
42261;DHT22;27926;48.062;7.474;2023-03-01T14:24:50;6.90;97.40
42261;DHT22;27926;48.062;7.474;2023-03-01T14:27:15;6.80;97.30
42261;DHT22;27926;48.062;7.474;2023-03-01T14:29:40;6.80;98.10
42261;DHT22;27926;48.062;7.474;2023-03-01T14:32:20;7.00;97.40
42261;DHT22;27926;48.062;7.474;2023-03-01T14:34:47;6.70;97.30
42261;DHT22;27926;48.062;7.474;2023-03-01T14:39:44;7.00;97.80
42261;DHT22;27926;48.062;7.474;2023-03-01T14:42:08;6.90;97.60
42261;DHT22;27926;48.062;7.474;2023-03-01T14:44:34;6.90;97.30
42261;DHT22;27926;48.062;7.474;2023-03-01T14:47:01;7.00;97.30
42261;DHT22;27926;48.062;7.474;2023-03-01T14:49:29;6.90;97.30
42261;DHT22;27926;48.062;7.474;2023-03-01T14:52:04;6.90;97.30
42261;DHT22;27926;48.062;7.474;2023-03-01T14:54:42;6.90;97.80
42261;DHT22;27926;48.062;7.474;2023-03-01T14:57:14;7.00;97.30
42261;DHT22;27926;48.062;7.474;2023-03-01T14:59:41;7.00;97.20
42261;DHT22;27926;48.062;7.474;2023-03-01T15:02:15;6.90;97.20
42261;DHT22;27926;48.062;7.474;2023-03-01T15:04:41;6.80;97.30
42261;DHT22;27926;48.062;7.474;2023-03-01T15:07:12;6.80;97.10
42261;DHT22;27926;48.062;7.474;2023-03-01T15:09:39;7.00;97.50
42261;DHT22;27926;48.062;7.474;2023-03-01T15:15:00;6.70;97.60
42261;DHT22;27926;48.062;7.474;2023-03-01T15:20:05;6.70;97.50
42261;DHT22;27926;48.062;7.474;2023-03-01T15:22:31;6.80;97.40
42261;DHT22;27926;48.062;7.474;2023-03-01T15:24:57;6.80;97.90
42261;DHT22;27926;48.062;7.474;2023-03-01T15:27:25;6.80;97.70
42261;DHT22;27926;48.062;7.474;2023-03-01T15:29:53;6.70;97.20
42261;DHT22;27926;48.062;7.474;2023-03-01T15:32:32;6.70;97.60
42261;DHT22;27926;48.062;7.474;2023-03-01T15:37:57;6.50;98.00
42261;DHT22;27926;48.062;7.474;2023-03-01T15:40:26;6.50;97.90
42261;DHT22;27926;48.062;7.474;2023-03-01T15:43:06;6.40;98.10
42261;DHT22;27926;48.062;7.474;2023-03-01T15:45:32;6.80;97.90
42261;DHT22;27926;48.062;7.474;2023-03-01T15:48:13;6.40;98.00
42261;DHT22;27926;48.062;7.474;2023-03-01T15:50:39;6.40;97.90
42261;DHT22;27926;48.062;7.474;2023-03-01T15:53:07;6.40;98.10
42261;DHT22;27926;48.062;7.474;2023-03-01T15:55:32;6.40;98.20
42261;DHT22;27926;48.062;7.474;2023-03-01T15:58:05;6.40;98.10
42261;DHT22;27926;48.062;7.474;2023-03-01T16:00:31;6.40;98.50
42261;DHT22;27926;48.062;7.474;2023-03-01T16:02:56;6.40;98.60
42261;DHT22;27926;48.062;7.474;2023-03-01T16:05:39;7.40;98.50
42261;DHT22;27926;48.062;7.474;2023-03-01T16:08:05;6.40;98.30
42261;DHT22;27926;48.062;7.474;2023-03-01T16:10:30;7.00;98.20
42261;DHT22;27926;48.062;7.474;2023-03-01T16:12:55;6.40;98.00
42261;DHT22;27926;48.062;7.474;2023-03-01T16:15:26;6.50;98.30
42261;DHT22;27926;48.062;7.474;2023-03-01T16:17:51;6.30;98.60
42261;DHT22;27926;48.062;7.474;2023-03-01T16:20:19;6.20;98.40
42261;DHT22;27926;48.062;7.474;2023-03-01T16:22:45;6.20;98.20
42261;DHT22;27926;48.062;7.474;2023-03-01T16:25:11;6.10;98.40
42261;DHT22;27926;48.062;7.474;2023-03-01T16:27:36;6.10;98.50
42261;DHT22;27926;48.062;7.474;2023-03-01T16:30:02;7.00;99.00
42261;DHT22;27926;48.062;7.474;2023-03-01T16:32:26;6.00;98.70
42261;DHT22;27926;48.062;7.474;2023-03-01T16:34:51;6.00;98.70
42261;DHT22;27926;48.062;7.474;2023-03-01T16:37:16;6.70;99.00
42261;DHT22;27926;48.062;7.474;2023-03-01T16:39:40;7.00;99.00
42261;DHT22;27926;48.062;7.474;2023-03-01T16:42:05;5.90;98.90
42261;DHT22;27926;48.062;7.474;2023-03-01T16:44:30;5.90;99.00
42261;DHT22;27926;48.062;7.474;2023-03-01T16:46:54;5.90;98.90
42261;DHT22;27926;48.062;7.474;2023-03-01T16:49:19;5.90;98.80
42261;DHT22;27926;48.062;7.474;2023-03-01T16:51:43;5.90;98.80
42261;DHT22;27926;48.062;7.474;2023-03-01T16:54:09;5.90;98.70
42261;DHT22;27926;48.062;7.474;2023-03-01T16:56:34;6.70;98.90
42261;DHT22;27926;48.062;7.474;2023-03-01T16:59:01;5.80;98.80
42261;DHT22;27926;48.062;7.474;2023-03-01T17:01:26;6.30;98.80
42261;DHT22;27926;48.062;7.474;2023-03-01T17:03:57;5.80;98.90
42261;DHT22;27926;48.062;7.474;2023-03-01T17:06:21;5.80;98.80
42261;DHT22;27926;48.062;7.474;2023-03-01T17:08:47;5.70;98.70
42261;DHT22;27926;48.062;7.474;2023-03-01T17:11:13;5.70;98.80
42261;DHT22;27926;48.062;7.474;2023-03-01T17:13:38;5.70;98.90
42261;DHT22;27926;48.062;7.474;2023-03-01T17:16:07;5.60;99.10
42261;DHT22;27926;48.062;7.474;2023-03-01T17:18:32;5.60;99.20
42261;DHT22;27926;48.062;7.474;2023-03-01T17:20:56;5.50;99.20
42261;DHT22;27926;48.062;7.474;2023-03-01T17:23:21;6.00;99.60
42261;DHT22;27926;48.062;7.474;2023-03-01T17:25:45;5.30;99.60
42261;DHT22;27926;48.062;7.474;2023-03-01T17:28:11;5.30;99.80
42261;DHT22;27926;48.062;7.474;2023-03-01T17:30:36;5.20;99.90
42261;DHT22;27926;48.062;7.474;2023-03-01T17:33:01;5.20;99.90
42261;DHT22;27926;48.062;7.474;2023-03-01T17:35:25;5.70;99.90
42261;DHT22;27926;48.062;7.474;2023-03-01T17:37:49;5.10;99.90
42261;DHT22;27926;48.062;7.474;2023-03-01T17:40:14;5.20;99.90
42261;DHT22;27926;48.062;7.474;2023-03-01T17:42:39;5.20;99.90
42261;DHT22;27926;48.062;7.474;2023-03-01T17:45:03;5.20;99.90
42261;DHT22;27926;48.062;7.474;2023-03-01T17:47:28;5.10;99.90
42261;DHT22;27926;48.062;7.474;2023-03-01T17:49:52;5.10;99.90
42261;DHT22;27926;48.062;7.474;2023-03-01T17:52:17;5.10;99.90